Paradise, Montana
Current Conditions -  °F | °C
As of 7:53 PM on Saturday 25 Oct 2014 (Local Time) from KMLP Reporting Station
Overcast Overcast  
Wind Chill:   Ceiling: 8500
Heat Index:   Visibility: 10mi
Dew Point:   Wind: 12mph
Humidity: 54%   Direction: 180°S
Pressure: 29.68"   Gusts: 24mph
Location:  47.39°N, 114.8°W
Report Text: KMLP 260153Z AUTO 18010G21KT 140V200 10SM BKN085 OVC110 09/00 A2968 RMK AO2 SLP993 T00890000
Loading
Personal Weather Stations






























Interactive Weather Map
Tropical Storm Tracking
New forecast layout! Learn more

10-Day Weather Forecast

Advertisements
Track Severe Weather on mobile